M I D A S
Marine Information and Data Acquisition System
Tripno 955 of the Zeeleeuw from 2005-08-30 05:10:28 to 2005-08-30 14:19:17
Back to CruiseResearch ActivitiesStationsMapUnderway DataData graphs

EquipmentUnitsComment
TimeDGPSUTC
LatitudeDGPSDM.mWGS84
LongitudeDGPSDM.mWGS84
HeadingGyrodeg 
SOGDGPSknotsSpeed over ground
COGDGPSdegCourse over ground
DepthEcho soundermeters200 kHz
Missing or incorrect values are displayed as -999
Navigation data collected by the RV Zeeleeuw from 2005-08-30 04:52:01 to 2005-08-30 14:26:24
                                                                                    Next 1000 lines
Time Latitude Longitude Heading SOG COG Depth
2005-08-30 04:52:10 51°13.598 2°56.09 111.8 1.1 287 7.1
2005-08-30 04:52:14 51°13.599 2°56.087 111.9 1.1 287 7.3
2005-08-30 04:52:21 51°13.6 2°56.081 112.5 1.1 287 7.6
2005-08-30 04:52:26 51°13.601 2°56.076 113 1.1 287 -999
2005-08-30 04:52:31 51°13.602 2°56.071 113.6 2.4 292 -999
2005-08-30 04:52:37 51°13.604 2°56.064 114.3 2.8 294 -999
2005-08-30 04:52:42 51°13.606 2°56.058 114.6 2.8 294 -999
2005-08-30 04:52:46 51°13.607 2°56.052 115 3.2 293 -999
2005-08-30 04:52:51 51°13.609 2°56.046 115.4 3.3 292 -999
2005-08-30 04:52:57 51°13.611 2°56.037 115.8 3.4 293 -999
2005-08-30 04:53:02 51°13.613 2°56.03 116.1 3.5 293 -999
2005-08-30 04:53:07 51°13.615 2°56.023 116.6 3.6 293 -999
2005-08-30 04:53:11 51°13.617 2°56.016 117.2 3.6 293 -999
2005-08-30 04:53:17 51°13.619 2°56.007 118 3.7 293 -999
2005-08-30 04:53:22 51°13.622 2°56 119 3.8 294 -999
2005-08-30 04:53:26 51°13.624 2°55.992 120.1 3.8 294 -999
2005-08-30 04:53:31 51°13.627 2°55.985 121.5 3.8 294 -999
2005-08-30 04:53:36 51°13.629 2°55.977 123.2 4 296 -999
2005-08-30 04:53:41 51°13.632 2°55.969 124.6 4.1 299 -999
2005-08-30 04:53:46 51°13.635 2°55.96 126 4.3 300 -999
2005-08-30 04:53:51 51°13.638 2°55.952 127.5 4.3 300 -999
2005-08-30 04:53:56 51°13.642 2°55.944 128.5 4.3 304 -999
2005-08-30 04:54:01 51°13.645 2°55.936 129.3 4.4 304 -999
2005-08-30 04:54:06 51°13.648 2°55.929 129.9 4.4 305 -999
2005-08-30 04:54:11 51°13.652 2°55.921 130.6 4.4 305 -999
2005-08-30 04:54:17 51°13.656 2°55.912 131 4.4 307 -999
2005-08-30 04:54:22 51°13.66 2°55.904 131.3 4.4 308 -999
2005-08-30 04:54:26 51°13.664 2°55.897 131.4 4.5 308 -999
2005-08-30 04:54:31 51°13.668 2°55.889 131.4 4.5 308 -999
2005-08-30 04:54:37 51°13.672 2°55.881 131.4 4.5 308 -999
2005-08-30 04:54:41 51°13.675 2°55.874 131.1 4.5 308 -999
2005-08-30 04:54:46 51°13.679 2°55.866 130.6 4.5 308 -999
2005-08-30 04:54:51 51°13.683 2°55.858 130.5 4.6 309 -999
2005-08-30 04:54:57 51°13.688 2°55.849 130.9 4.6 308 -999
2005-08-30 04:55:02 51°13.692 2°55.841 131.5 4.7 309 -999
2005-08-30 04:55:06 51°13.695 2°55.834 132.1 4.7 309 -999
2005-08-30 04:55:11 51°13.7 2°55.825 132.8 4.7 309 -999
2005-08-30 04:55:17 51°13.706 2°55.815 133.4 4.9 310 -999
2005-08-30 04:55:22 51°13.71 2°55.808 134 5 310 -999
2005-08-30 04:55:26 51°13.713 2°55.8 134.8 5 310 -999
2005-08-30 04:55:31 51°13.718 2°55.792 135.5 5.1 311 -999
2005-08-30 04:55:36 51°13.723 2°55.784 136 5.2 312 -999
2005-08-30 04:55:41 51°13.728 2°55.775 136.7 5.2 313 -999
2005-08-30 04:55:47 51°13.734 2°55.766 137.5 5.2 313 -999
2005-08-30 04:55:52 51°13.739 2°55.757 138.4 5.2 313 -999
2005-08-30 04:55:57 51°13.744 2°55.749 139.3 5.3 314 -999
2005-08-30 04:56:02 51°13.75 2°55.741 140 5.3 314 -999
2005-08-30 04:56:06 51°13.755 2°55.734 140.5 5.3 314 -999
2005-08-30 04:56:11 51°13.76 2°55.725 141.2 5.5 317 -999
2005-08-30 04:56:17 51°13.767 2°55.716 142 5.5 317 -999
2005-08-30 04:56:22 51°13.772 2°55.708 142.9 5.6 319 -999
2005-08-30 04:56:26 51°13.778 2°55.701 143.8 5.6 320 -999
2005-08-30 04:56:31 51°13.784 2°55.693 144.9 5.6 321 -999
2005-08-30 04:56:37 51°13.791 2°55.685 146.6 5.5 323 -999
2005-08-30 04:56:42 51°13.797 2°55.679 148.7 5.4 325 -999
2005-08-30 04:56:46 51°13.803 2°55.673 151.2 5.4 325 -999
2005-08-30 04:56:51 51°13.809 2°55.667 153.8 5.3 329 -999
2005-08-30 04:56:56 51°13.815 2°55.662 157 5.3 329 -999
2005-08-30 04:57:02 51°13.823 2°55.656 159.1 5.3 333 -999
2005-08-30 04:57:07 51°13.83 2°55.652 161.8 5.2 336 -999
2005-08-30 04:57:11 51°13.836 2°55.649 164.5 5.2 339 -999
2005-08-30 04:57:16 51°13.842 2°55.645 167.1 5.1 342 -999
2005-08-30 04:57:22 51°13.85 2°55.642 169.8 5.2 344 -999
2005-08-30 04:57:26 51°13.856 2°55.64 172.3 5.2 345 -999
2005-08-30 04:57:31 51°13.863 2°55.638 174.9 5.1 348 -999
2005-08-30 04:57:36 51°13.87 2°55.636 177.8 5.1 348 -999
2005-08-30 04:57:42 51°13.878 2°55.636 180.7 5.1 353 -999
2005-08-30 04:57:47 51°13.885 2°55.636 183.9 5.1 353 -999
2005-08-30 04:57:51 51°13.89 2°55.636 186.7 4.6 359 -999
2005-08-30 04:57:56 51°13.896 2°55.636 189.3 4.3 3 -999
2005-08-30 04:58:02 51°13.902 2°55.637 191.6 4.1 3 -999
2005-08-30 04:58:06 51°13.907 2°55.638 193.7 3.8 6 4.9
2005-08-30 04:58:11 51°13.912 2°55.639 195.6 3.8 6 4.8
2005-08-30 04:58:16 51°13.916 2°55.64 197.5 3.6 8 5
2005-08-30 04:58:21 51°13.921 2°55.642 198.9 3.5 9 9.4
2005-08-30 04:58:26 51°13.926 2°55.643 200.6 3.4 12 9.4
2005-08-30 04:58:30 51°13.929 2°55.645 202.1 3 13 5.8
2005-08-30 04:58:36 51°13.932 2°55.646 203.9 2.8 15 9.8
2005-08-30 04:58:41 51°13.934 2°55.647 206.6 2.3 13 9.8
2005-08-30 04:58:46 51°13.936 2°55.647 209.9 2.3 13 10
2005-08-30 04:58:50 51°13.936 2°55.646 214.4 0.6 346 10.1
2005-08-30 04:58:56 51°13.936 2°55.645 219.9 0.6 346 10.1
2005-08-30 04:59:01 51°13.936 2°55.643 226.1 0.6 346 10.1
2005-08-30 04:59:06 51°13.935 2°55.64 232.9 1.1 254 10.1
2005-08-30 04:59:10 51°13.935 2°55.636 240.8 2.1 253 10.1
2005-08-30 04:59:16 51°13.933 2°55.628 249.4 2.6 257 10.1
2005-08-30 04:59:20 51°13.933 2°55.623 258 3 260 10.2
2005-08-30 04:59:26 51°13.934 2°55.612 266.7 3 260 10.4
2005-08-30 04:59:30 51°13.935 2°55.605 275.3 4 281 10.3
2005-08-30 04:59:36 51°13.937 2°55.593 284 4.3 288 10.2
2005-08-30 04:59:41 51°13.94 2°55.585 292.7 4.3 288 10.1
2005-08-30 04:59:46 51°13.945 2°55.576 301.9 4.8 300 9.9
2005-08-30 04:59:50 51°13.95 2°55.569 311.5 5.1 311 10.3
2005-08-30 04:59:56 51°13.956 2°55.56 320 5.1 311 10.2
2005-08-30 05:00:01 51°13.963 2°55.551 324.1 5.1 311 10.2
2005-08-30 05:00:06 51°13.971 2°55.542 325.6 6.5 322 10.2
2005-08-30 05:00:10 51°13.978 2°55.534 327.1 6.9 324 10.2
2005-08-30 05:00:16 51°13.989 2°55.524 328.7 6.9 324 10.1
2005-08-30 05:00:20 51°13.996 2°55.516 330.6 7.8 328 10.2
2005-08-30 05:00:26 51°14.008 2°55.505 332.5 8 329 10.2
2005-08-30 05:00:30 51°14.016 2°55.498 334.6 8.4 331 9.9
2005-08-30 05:00:36 51°14.03 2°55.488 336.8 8.4 331 9.9
2005-08-30 05:00:41 51°14.04 2°55.481 338.1 9 335 9.8
2005-08-30 05:00:46 51°14.052 2°55.472 338.8 9 335 9.8
2005-08-30 05:00:50 51°14.062 2°55.464 339.8 9.3 336 9.9
2005-08-30 05:00:56 51°14.076 2°55.454 340.3 9.3 336 9.7
2005-08-30 05:01:00 51°14.086 2°55.447 340.4 9.7 337 9.6
2005-08-30 05:01:06 51°14.101 2°55.437 341.1 9.7 337 9.5
2005-08-30 05:01:11 51°14.114 2°55.429 342.3 10 338 9.7
2005-08-30 05:01:16 51°14.127 2°55.419 341.4 10 338 9.8
2005-08-30 05:01:20 51°14.137 2°55.411 339.6 10.4 334 9.8
2005-08-30 05:01:26 51°14.152 2°55.399 338.2 10.4 334 9.9
2005-08-30 05:01:31 51°14.166 2°55.386 336.8 10.4 334 10.2
2005-08-30 05:01:36 51°14.179 2°55.372 334.4 10.4 334 10.1
2005-08-30 05:01:41 51°14.19 2°55.36 331.6 11.1 326 10.3
2005-08-30 05:01:46 51°14.203 2°55.343 330.1 11.1 326 10.2
2005-08-30 05:01:51 51°14.214 2°55.328 327.1 11.1 326 10.3
2005-08-30 05:01:56 51°14.226 2°55.309 322.6 11.1 326 10.1
2005-08-30 05:02:00 51°14.234 2°55.294 317.9 11.2 315 10.7
2005-08-30 05:02:06 51°14.247 2°55.272 316.8 11.3 314 10.2
2005-08-30 05:02:11 51°14.256 2°55.255 317 11.3 314 10.1
2005-08-30 05:02:16 51°14.268 2°55.235 316.5 11.3 314 10.1
2005-08-30 05:02:21 51°14.279 2°55.217 318 11.3 314 10.3
2005-08-30 05:02:26 51°14.29 2°55.198 318.6 11.3 314 10.2
2005-08-30 05:02:31 51°14.3 2°55.181 318.4 11.5 314 10.2
2005-08-30 05:02:36 51°14.311 2°55.163 317.6 11.5 314 10.1
2005-08-30 05:02:40 51°14.322 2°55.146 317.3 11.7 314 10.1
2005-08-30 05:02:46 51°14.335 2°55.123 317.1 11.7 314 10.1
2005-08-30 05:02:50 51°14.344 2°55.107 317.3 11.8 313 10.2
2005-08-30 05:02:56 51°14.357 2°55.083 316.7 11.8 313 10.1
2005-08-30 05:03:00 51°14.365 2°55.065 314.2 11.8 313 10
2005-08-30 05:03:06 51°14.376 2°55.037 310.4 11.8 313 10.2
2005-08-30 05:03:10 51°14.382 2°55.017 305.8 12.4 301 10.1
2005-08-30 05:03:16 51°14.391 2°54.987 302.2 12.4 301 10.1
2005-08-30 05:03:20 51°14.397 2°54.966 299.9 12.9 294 10.1
2005-08-30 05:03:26 51°14.405 2°54.934 298.6 12.9 294 10.2
2005-08-30 05:03:30 51°14.411 2°54.912 298 12.9 294 10.3
2005-08-30 05:03:36 51°14.419 2°54.878 297.8 13.4 290 10.3
2005-08-30 05:03:41 51°14.425 2°54.853 297.2 13.4 290 10.3
2005-08-30 05:03:46 51°14.432 2°54.822 296.9 13.6 290 10.2
2005-08-30 05:03:50 51°14.437 2°54.8 297.4 13.6 290 10.3
2005-08-30 05:03:56 51°14.445 2°54.766 297.4 13.6 290 10.3
2005-08-30 05:04:01 51°14.451 2°54.74 297.4 13.6 290 10.2
2005-08-30 05:04:06 51°14.458 2°54.708 297.4 13.8 290 10.2
2005-08-30 05:04:10 51°14.464 2°54.685 297.2 13.8 290 10.2
2005-08-30 05:04:16 51°14.471 2°54.653 297 13.8 290 10.3
2005-08-30 05:04:21 51°14.478 2°54.625 296.8 13.8 290 10.4
2005-08-30 05:04:26 51°14.484 2°54.596 296.8 13.8 290 10.4
2005-08-30 05:04:30 51°14.491 2°54.57 297.5 13.9 291 10.4
2005-08-30 05:04:35 51°14.498 2°54.542 298.1 13.9 291 10.3
2005-08-30 05:04:41 51°14.507 2°54.508 299 13.9 292 10.3
2005-08-30 05:04:46 51°14.514 2°54.482 299.2 13.9 292 10.4
2005-08-30 05:04:50 51°14.52 2°54.457 299.6 13.9 292 10.4
2005-08-30 05:04:55 51°14.528 2°54.429 299.7 13.9 292 10.4
2005-08-30 05:05:00 51°14.536 2°54.401 300.1 13.9 293 10.4
2005-08-30 05:05:06 51°14.544 2°54.367 300.1 13.9 293 10.3
2005-08-30 05:05:11 51°14.551 2°54.341 300 13.9 292 10.3
2005-08-30 05:05:16 51°14.559 2°54.31 299.8 13.9 292 10.4
2005-08-30 05:05:21 51°14.566 2°54.284 299.4 14 291 10.4
2005-08-30 05:05:26 51°14.573 2°54.255 298.8 13.9 291 10.3
2005-08-30 05:05:31 51°14.58 2°54.227 298.6 14 291 10.3
2005-08-30 05:05:36 51°14.588 2°54.195 298.5 14 291 10.3
2005-08-30 05:05:41 51°14.594 2°54.169 298.3 14 291 10.6
2005-08-30 05:05:46 51°14.602 2°54.138 298.6 14 291 10.5
2005-08-30 05:05:50 51°14.608 2°54.115 299 14 292 10.5
2005-08-30 05:05:56 51°14.618 2°54.081 299.2 14 292 10.5
2005-08-30 05:06:01 51°14.625 2°54.053 299.4 14 292 10.4
2005-08-30 05:06:06 51°14.633 2°54.025 299.6 14 292 10.4
2005-08-30 05:06:11 51°14.64 2°54 299.7 13.9 293 10.5
2005-08-30 05:06:16 51°14.648 2°53.969 299.8 13.8 293 10.4
2005-08-30 05:06:21 51°14.654 2°53.943 299.8 13.9 293 10.6
2005-08-30 05:06:26 51°14.663 2°53.912 299.6 13.9 292 10.6
2005-08-30 05:06:30 51°14.668 2°53.889 299.2 13.9 292 10.6
2005-08-30 05:06:36 51°14.676 2°53.854 298.3 13.9 292 10.4
2005-08-30 05:06:41 51°14.682 2°53.828 297 13.9 292 10.3
2005-08-30 05:06:46 51°14.688 2°53.799 295.8 13.9 292 10.2
2005-08-30 05:06:50 51°14.693 2°53.773 295.2 13.8 288 10.2
2005-08-30 05:06:55 51°14.699 2°53.744 294.8 13.8 288 10
2005-08-30 05:07:01 51°14.706 2°53.709 294.6 13.8 288 10
2005-08-30 05:07:06 51°14.711 2°53.683 294.4 13.8 287 10
2005-08-30 05:07:11 51°14.715 2°53.653 293.3 13.7 283 9.9
2005-08-30 05:07:15 51°14.718 2°53.627 288.7 13.8 281 9.9
2005-08-30 05:07:21 51°14.72 2°53.593 285.9 13.8 277 10.2
2005-08-30 05:07:26 51°14.722 2°53.56 282.5 13.8 276 10.1
2005-08-30 05:07:30 51°14.723 2°53.536 280.5 13.8 275 10
2005-08-30 05:07:36 51°14.723 2°53.499 279.2 13.8 275 10.3
2005-08-30 05:07:40 51°14.724 2°53.474 278.3 13.9 272 10.1
2005-08-30 05:07:46 51°14.725 2°53.437 277.7 13.9 272 10
2005-08-30 05:07:51 51°14.725 2°53.406 277.1 13.9 272 9.9
2005-08-30 05:07:56 51°14.725 2°53.376 276.8 13.9 271 9.8
2005-08-30 05:08:01 51°14.726 2°53.348 276.9 13.9 272 9.7
2005-08-30 05:08:06 51°14.727 2°53.314 277 13.9 272 9.7
2005-08-30 05:08:10 51°14.727 2°53.289 277.6 13.9 272 9.6
2005-08-30 05:08:16 51°14.728 2°53.253 278 13.9 272 9.4
2005-08-30 05:08:21 51°14.729 2°53.222 278.3 14 272 9.4
2005-08-30 05:08:26 51°14.73 2°53.191 278.8 13.9 273 9.4
2005-08-30 05:08:30 51°14.731 2°53.167 278.9 14 273 9.4
2005-08-30 05:08:36 51°14.732 2°53.13 278.9 13.9 274 9.3
2005-08-30 05:08:41 51°14.734 2°53.102 279 13.9 273 9.3
2005-08-30 05:08:46 51°14.735 2°53.069 279.1 13.9 273 9.4
2005-08-30 05:08:50 51°14.736 2°53.045 279.3 13.9 273 9.4
2005-08-30 05:08:55 51°14.737 2°53.013 279.4 14 274 9.4
2005-08-30 05:09:01 51°14.739 2°52.976 279.5 14.1 273 9.5
2005-08-30 05:09:06 51°14.74 2°52.945 279.5 14.1 273 9.5
2005-08-30 05:09:11 51°14.741 2°52.916 279.2 14 273 9.5
2005-08-30 05:09:16 51°14.741 2°52.885 278.8 14 273 9.5
2005-08-30 05:09:21 51°14.742 2°52.851 278.3 14.1 272 9.5
2005-08-30 05:09:26 51°14.742 2°52.823 277.8 14.1 272 9.6
2005-08-30 05:09:31 51°14.742 2°52.791 277.4 14.2 272 9.5
2005-08-30 05:09:36 51°14.743 2°52.757 277.3 14.2 271 9.5
2005-08-30 05:09:41 51°14.744 2°52.725 277.2 14.2 271 9.6
2005-08-30 05:09:46 51°14.745 2°52.694 277.7 14.2 271 9.6
2005-08-30 05:09:50 51°14.746 2°52.669 278.6 14.2 273 9.7
2005-08-30 05:09:56 51°14.747 2°52.634 279 14.2 273 9.6
2005-08-30 05:10:00 51°14.748 2°52.606 279.5 14.2 274 9.6
2005-08-30 05:10:06 51°14.749 2°52.571 279.8 14.2 274 9.6
2005-08-30 05:10:11 51°14.751 2°52.537 279.8 14.2 273 9.7
2005-08-30 05:10:14 51°14.751 2°52.518 279.5 14.2 273 9.7
2005-08-30 05:10:21 51°14.753 2°52.478 279.3 14.2 273 9.7
2005-08-30 05:10:26 51°14.753 2°52.446 278.8 14.2 272 9.7
2005-08-30 05:10:30 51°14.754 2°52.418 278.4 14.3 272 9.7
2005-08-30 05:10:36 51°14.754 2°52.383 278.1 14.2 272 9.8
2005-08-30 05:10:41 51°14.755 2°52.352 278.1 14.3 272 9.8
2005-08-30 05:10:46 51°14.756 2°52.317 278.1 14.3 272 9.8
2005-08-30 05:10:50 51°14.757 2°52.292 278.1 14.3 272 9.9
2005-08-30 05:10:56 51°14.758 2°52.254 278.7 14.3 272 9.9
2005-08-30 05:11:01 51°14.759 2°52.226 279.4 14.3 273 9.9
2005-08-30 05:11:06 51°14.76 2°52.194 279.7 14.3 273 9.9
2005-08-30 05:11:10 51°14.761 2°52.166 280 14.3 274 10
2005-08-30 05:11:16 51°14.763 2°52.131 280.1 14.3 273 9.9
2005-08-30 05:11:21 51°14.764 2°52.097 280.1 14.3 273 10
2005-08-30 05:11:26 51°14.765 2°52.065 279.9 14.3 273 10.1
2005-08-30 05:11:30 51°14.766 2°52.04 279.4 14.3 273 10
2005-08-30 05:11:36 51°14.766 2°52.002 279 14.4 272 10.1
2005-08-30 05:11:41 51°14.767 2°51.97 278.6 14.4 272 10.2
2005-08-30 05:11:46 51°14.767 2°51.938 278 14.4 272 10.2
2005-08-30 05:11:50 51°14.768 2°51.912 277.9 14.5 271 10.2
2005-08-30 05:11:56 51°14.769 2°51.877 277.7 14.4 272 10.2
2005-08-30 05:12:01 51°14.77 2°51.845 278 14.4 272 10.4
2005-08-30 05:12:06 51°14.771 2°51.81 278.6 14.4 273 10.4
2005-08-30 05:12:10 51°14.772 2°51.785 278.9 14.4 273 10.4
2005-08-30 05:12:16 51°14.773 2°51.749 279.6 14.4 274 10.4
2005-08-30 05:12:20 51°14.774 2°51.721 279.7 14.4 274 10.5
2005-08-30 05:12:26 51°14.776 2°51.686 280.1 14.4 274 10.5
2005-08-30 05:12:30 51°14.777 2°51.657 280.3 14.4 274 10.6
2005-08-30 05:12:36 51°14.778 2°51.618 280.3 14.6 274 10.7
2005-08-30 05:12:40 51°14.78 2°51.593 280.3 14.5 273 10.7
2005-08-30 05:12:46 51°14.781 2°51.558 280 14.5 273 10.8
2005-08-30 05:12:51 51°14.782 2°51.523 279.4 14.5 273 10.8
2005-08-30 05:12:56 51°14.783 2°51.494 279 14.5 272 10.8
2005-08-30 05:13:01 51°14.783 2°51.462 278.7 14.5 272 10.8
2005-08-30 05:13:06 51°14.784 2°51.426 278.2 14.5 272 10.9
2005-08-30 05:13:11 51°14.785 2°51.397 278.2 14.5 272 11
2005-08-30 05:13:16 51°14.786 2°51.362 278.6 14.5 273 11
2005-08-30 05:13:21 51°14.787 2°51.333 279 14.5 273 11.1
2005-08-30 05:13:26 51°14.788 2°51.298 279.2 14.5 273 11.1
2005-08-30 05:13:30 51°14.789 2°51.272 279.4 14.5 273 11.1
2005-08-30 05:13:36 51°14.79 2°51.237 279.6 14.6 273 11.2
2005-08-30 05:13:41 51°14.792 2°51.202 279.6 14.6 273 11.2
2005-08-30 05:13:46 51°14.793 2°51.17 279.4 14.6 273 11.2
2005-08-30 05:13:50 51°14.794 2°51.144 279.4 14.6 273 11.3
2005-08-30 05:13:54 51°14.794 2°51.118 279.2 14.6 273 11.3
2005-08-30 05:14:01 51°14.796 2°51.073 279.2 14.6 274 11.3
2005-08-30 05:14:06 51°14.797 2°51.041 279.2 14.6 274 11.4
2005-08-30 05:14:11 51°14.798 2°51.012 278.9 14.6 274 11.4
2005-08-30 05:14:16 51°14.798 2°50.975 278.6 14.6 274 11.4
2005-08-30 05:14:20 51°14.799 2°50.949 278.5 14.6 272 11.6
2005-08-30 05:14:26 51°14.799 2°50.91 278.4 14.6 272 11.5
2005-08-30 05:14:31 51°14.8 2°50.881 278.4 14.7 272 11.6
2005-08-30 05:14:36 51°14.802 2°50.846 278.6 14.6 272 11.6
2005-08-30 05:14:41 51°14.803 2°50.813 278.7 14.6 273 11.6
2005-08-30 05:14:46 51°14.804 2°50.781 279.1 14.6 273 11.7
2005-08-30 05:14:51 51°14.805 2°50.749 279.3 14.6 273 11.7
2005-08-30 05:14:56 51°14.807 2°50.717 279.4 14.6 273 11.9
2005-08-30 05:15:01 51°14.808 2°50.688 279.6 14.6 273 11.8
2005-08-30 05:15:06 51°14.809 2°50.652 279.6 14.6 273 12
2005-08-30 05:15:10 51°14.81 2°50.627 279.5 14.6 273 11.9
2005-08-30 05:15:16 51°14.811 2°50.588 279.4 14.7 273 11.9
2005-08-30 05:15:21 51°14.811 2°50.558 278.9 14.7 273 12
2005-08-30 05:15:26 51°14.813 2°50.526 278.8 14.7 273 12.1
2005-08-30 05:15:31 51°14.814 2°50.493 278.8 14.7 273 12
2005-08-30 05:15:36 51°14.815 2°50.458 278.9 14.7 273 12.1
2005-08-30 05:15:41 51°14.816 2°50.428 279.2 14.7 273 12.1
2005-08-30 05:15:46 51°14.817 2°50.395 279.5 14.7 273 12.2
2005-08-30 05:15:50 51°14.818 2°50.366 279.5 14.7 273 12.2
2005-08-30 05:15:55 51°14.819 2°50.335 279.5 14.7 273 12.2
2005-08-30 05:16:01 51°14.82 2°50.296 279.3 14.8 272 12.2
2005-08-30 05:16:06 51°14.822 2°50.264 278.9 14.7 273 12.3
2005-08-30 05:16:11 51°14.822 2°50.235 278.7 14.7 273 12.3
2005-08-30 05:16:16 51°14.823 2°50.202 278.5 14.7 272 12.3
2005-08-30 05:16:22 51°14.823 2°50.163 278.3 14.7 272 12.3
2005-08-30 05:16:26 51°14.824 2°50.134 278.3 14.7 272 12.3
2005-08-30 05:16:31 51°14.825 2°50.105 278.4 14.7 272 12.4
2005-08-30 05:16:35 51°14.825 2°50.076 278.4 14.7 272 12.4
2005-08-30 05:16:41 51°14.826 2°50.04 278.4 14.7 272 12.4
2005-08-30 05:16:46 51°14.827 2°50.004 278.4 14.7 272 12.4
2005-08-30 05:16:51 51°14.828 2°49.975 278.4 14.7 272 12.5
2005-08-30 05:16:56 51°14.829 2°49.942 278.4 14.7 273 12.5
2005-08-30 05:17:01 51°14.829 2°49.909 278.4 14.7 272 12.5
2005-08-30 05:17:06 51°14.83 2°49.876 278.4 14.7 272 12.5
2005-08-30 05:17:11 51°14.831 2°49.844 278.5 14.7 272 12.6
2005-08-30 05:17:16 51°14.832 2°49.811 278.7 14.7 273 12.5
2005-08-30 05:17:21 51°14.833 2°49.779 278.7 14.7 272 12.5
2005-08-30 05:17:26 51°14.834 2°49.743 278.8 14.7 272 12.5
2005-08-30 05:17:30 51°14.834 2°49.717 278.9 14.7 272 12.6
2005-08-30 05:17:36 51°14.835 2°49.681 279.1 14.7 272 12.6
2005-08-30 05:17:41 51°14.837 2°49.646 279.3 14.7 273 12.6
2005-08-30 05:17:46 51°14.838 2°49.613 279.3 14.7 273 12.7
2005-08-30 05:17:51 51°14.839 2°49.584 279.5 14.6 273 12.7
2005-08-30 05:17:56 51°14.839 2°49.551 279.7 14.7 273 12.7
2005-08-30 05:18:01 51°14.84 2°49.519 279.6 14.7 272 12.7
2005-08-30 05:18:06 51°14.841 2°49.484 279.4 14.7 273 12.7
2005-08-30 05:18:11 51°14.842 2°49.454 279.2 14.7 273 12.7
2005-08-30 05:18:16 51°14.843 2°49.422 279.4 14.7 273 12.7
2005-08-30 05:18:21 51°14.845 2°49.386 279.5 14.6 273 12.8
2005-08-30 05:18:27 51°14.846 2°49.35 279.7 14.6 273 12.7
2005-08-30 05:18:31 51°14.847 2°49.324 279.8 14.7 273 12.8
2005-08-30 05:18:36 51°14.847 2°49.29 279.6 14.7 273 12.7
2005-08-30 05:18:41 51°14.849 2°49.259 279.3 14.7 273 12.7
2005-08-30 05:18:45 51°14.85 2°49.229 279.2 14.7 273 12.8
2005-08-30 05:18:51 51°14.851 2°49.194 279.1 14.7 272 12.8
2005-08-30 05:18:56 51°14.851 2°49.161 279 14.7 272 12.8
2005-08-30 05:19:01 51°14.853 2°49.129 279.1 14.7 272 12.8
2005-08-30 05:19:06 51°14.854 2°49.097 279.3 14.6 273 12.8
2005-08-30 05:19:11 51°14.855 2°49.064 279.4 14.6 273 12.8
2005-08-30 05:19:16 51°14.856 2°49.032 279.4 14.6 273 12.8
2005-08-30 05:19:21 51°14.857 2°49 279.5 14.6 273 12.8
2005-08-30 05:19:26 51°14.858 2°48.968 279.4 14.6 273 12.7
2005-08-30 05:19:31 51°14.859 2°48.935 279.4 14.6 274 12.8
2005-08-30 05:19:35 51°14.86 2°48.906 279.4 14.6 273 12.8
2005-08-30 05:19:40 51°14.861 2°48.877 279.4 14.6 273 12.8
2005-08-30 05:19:46 51°14.862 2°48.835 279.4 14.6 273 12.7
2005-08-30 05:19:51 51°14.864 2°48.806 279.4 14.6 273 12.7
2005-08-30 05:19:56 51°14.865 2°48.774 279.4 14.6 273 12.7
2005-08-30 05:20:01 51°14.866 2°48.742 279.4 14.6 273 12.6
2005-08-30 05:20:05 51°14.867 2°48.713 279.4 14.6 273 12.6
2005-08-30 05:20:10 51°14.868 2°48.681 279.4 14.6 273 12.6
2005-08-30 05:20:16 51°14.869 2°48.645 279.2 14.6 273 12.6
2005-08-30 05:20:21 51°14.87 2°48.613 279.1 14.6 273 12.6
2005-08-30 05:20:26 51°14.871 2°48.578 279 14.6 273 12.6
2005-08-30 05:20:31 51°14.872 2°48.549 279.1 14.6 273 12.5
2005-08-30 05:20:35 51°14.873 2°48.52 279.4 14.6 273 12.6
2005-08-30 05:20:40 51°14.874 2°48.491 279.6 14.6 273 12.5
2005-08-30 05:20:46 51°14.876 2°48.452 279.6 14.6 273 12.5
2005-08-30 05:20:51 51°14.877 2°48.42 279.5 14.6 273 12.5
2005-08-30 05:20:56 51°14.878 2°48.387 279.4 14.7 273 12.5
2005-08-30 05:21:01 51°14.879 2°48.355 279.4 14.6 273 12.5
2005-08-30 05:21:06 51°14.88 2°48.323 279.4 14.6 273 12.5
2005-08-30 05:21:11 51°14.881 2°48.291 279.1 14.6 273 12.6
2005-08-30 05:21:16 51°14.882 2°48.259 278.9 14.6 273 12.6
2005-08-30 05:21:21 51°14.883 2°48.227 278.9 14.6 273 12.6
2005-08-30 05:21:26 51°14.884 2°48.194 279 14.6 273 12.7
2005-08-30 05:21:31 51°14.885 2°48.162 279.2 14.6 273 12.8
2005-08-30 05:21:35 51°14.886 2°48.133 279.2 14.6 273 12.9
2005-08-30 05:21:41 51°14.887 2°48.098 279.2 14.6 273 13.1
2005-08-30 05:21:46 51°14.888 2°48.062 279.2 14.6 273 13.1
2005-08-30 05:21:50 51°14.889 2°48.036 279.1 14.6 273 13.1
2005-08-30 05:21:56 51°14.89 2°48.001 279 14.6 273 13.2
2005-08-30 05:22:01 51°14.891 2°47.968 278.8 14.6 273 13.1
2005-08-30 05:22:06 51°14.892 2°47.936 279.2 14.7 273 13.1
2005-08-30 05:22:11 51°14.893 2°47.904 279.3 14.6 273 13.1
2005-08-30 05:22:16 51°14.894 2°47.872 279.4 14.6 273 13.1
2005-08-30 05:22:21 51°14.895 2°47.84 279.3 14.6 273 13.1
2005-08-30 05:22:26 51°14.896 2°47.808 279.1 14.6 273 13.1
2005-08-30 05:22:31 51°14.897 2°47.775 278.7 14.6 272 13.2
2005-08-30 05:22:37 51°14.898 2°47.736 278.6 14.6 272 13.1
2005-08-30 05:22:41 51°14.899 2°47.711 278.6 14.6 273 13.2
2005-08-30 05:22:46 51°14.9 2°47.676 278.9 14.6 273 13.2
2005-08-30 05:22:51 51°14.902 2°47.647 279.4 14.6 274 13.2
2005-08-30 05:22:56 51°14.903 2°47.614 279.6 14.6 274 13.2
2005-08-30 05:23:01 51°14.904 2°47.582 279.8 14.6 274 13.2
2005-08-30 05:23:06 51°14.905 2°47.547 279.6 14.6 274 13.1
2005-08-30 05:23:11 51°14.907 2°47.518 279.6 14.6 274 13.2
2005-08-30 05:23:15 51°14.907 2°47.492 279.6 14.6 273 13
2005-08-30 05:23:19 51°14.908 2°47.463 279.3 14.6 273 13
2005-08-30 05:23:26 51°14.91 2°47.421 279.2 14.6 273 12.8
2005-08-30 05:23:31 51°14.911 2°47.39 279.2 14.6 273 12.7
2005-08-30 05:23:36 51°14.912 2°47.357 279.4 14.5 273 12.5
2005-08-30 05:23:39 51°14.913 2°47.338 279.6 14.5 273 12.1
2005-08-30 05:23:46 51°14.915 2°47.29 279.2 14.5 273 11.9
2005-08-30 05:23:51 51°14.916 2°47.262 279.3 14.5 274 11.9
2005-08-30 05:23:56 51°14.917 2°47.23 279.4 14.4 274 11.5
2005-08-30 05:24:01 51°14.918 2°47.198 279.5 14.4 274 11.5
2005-08-30 05:24:06 51°14.92 2°47.166 279.4 14.4 274 11
2005-08-30 05:24:11 51°14.92 2°47.134 279.4 14.4 273 11.1
2005-08-30 05:24:16 51°14.921 2°47.102 278.7 14.4 273 10.8
2005-08-30 05:24:21 51°14.923 2°47.071 278.7 14.4 273 10.5
2005-08-30 05:24:26 51°14.924 2°47.039 279.1 14.4 273 10.2
2005-08-30 05:24:31 51°14.925 2°47.007 279.3 14.3 274 10.1
2005-08-30 05:24:36 51°14.926 2°46.976 279.5 14.3 274 10
2005-08-30 05:24:41 51°14.927 2°46.944 279.6 14.3 274 9.9
2005-08-30 05:24:46 51°14.929 2°46.913 279.6 14.3 273 9.7
2005-08-30 05:24:51 51°14.93 2°46.881 279.5 14.3 274 9.6
2005-08-30 05:24:56 51°14.931 2°46.85 279.5 14.3 274 9.5
2005-08-30 05:25:01 51°14.932 2°46.818 279.4 14.3 274 9.4
2005-08-30 05:25:06 51°14.934 2°46.787 279.7 14.2 274 9.4
2005-08-30 05:25:11 51°14.935 2°46.755 279.8 14.3 274 9.4
2005-08-30 05:25:16 51°14.936 2°46.724 279.8 14.3 274 9.5
2005-08-30 05:25:21 51°14.937 2°46.689 279.7 14.3 273 9.4
2005-08-30 05:25:26 51°14.938 2°46.66 279 14.3 272 9.4
2005-08-30 05:25:31 51°14.939 2°46.629 278.6 14.3 272 9.3
2005-08-30 05:25:36 51°14.94 2°46.597 278.2 14.3 272 9.3
2005-08-30 05:25:41 51°14.941 2°46.566 278.1 14.3 272 9.4
2005-08-30 05:25:46 51°14.942 2°46.531 278.2 14.4 272 9.5
2005-08-30 05:25:51 51°14.943 2°46.502 278.7 14.4 273 9.5
2005-08-30 05:25:56 51°14.944 2°46.47 279.1 14.4 274 9.6
2005-08-30 05:26:01 51°14.946 2°46.439 279.9 14.4 274 9.7
2005-08-30 05:26:06 51°14.947 2°46.407 280.2 14.4 274 9.8
2005-08-30 05:26:11 51°14.949 2°46.375 280.7 14.4 274 9.9
2005-08-30 05:26:16 51°14.95 2°46.343 280.8 14.4 274 10
2005-08-30 05:26:21 51°14.952 2°46.311 280.6 14.4 274 10
2005-08-30 05:26:26 51°14.953 2°46.28 280.4 14.5 274 10.2
2005-08-30 05:26:31 51°14.955 2°46.247 280.2 14.5 274 10.4
2005-08-30 05:26:36 51°14.956 2°46.215 279.9 14.5 274 10.6
2005-08-30 05:26:41 51°14.957 2°46.183 279.6 14.5 274 10.8
2005-08-30 05:26:46 51°14.958 2°46.151 279.2 14.5 273 10.9
2005-08-30 05:26:50 51°14.959 2°46.122 279.2 14.6 274 11.1
2005-08-30 05:26:56 51°14.961 2°46.087 279.4 14.6 273 11.3
2005-08-30 05:27:01 51°14.963 2°46.055 279.7 14.6 274 11.5
2005-08-30 05:27:06 51°14.964 2°46.02 279.8 14.6 274 11.7
2005-08-30 05:27:10 51°14.965 2°45.994 279.8 14.6 274 11.8
2005-08-30 05:27:16 51°14.967 2°45.958 279.6 14.6 274 11.9
2005-08-30 05:27:21 51°14.968 2°45.927 279.3 14.6 274 12.2
2005-08-30 05:27:26 51°14.969 2°45.894 279.1 14.5 273 12.2
2005-08-30 05:27:31 51°14.97 2°45.862 278.8 14.6 273 12.4
2005-08-30 05:27:36 51°14.971 2°45.83 279 14.6 273 12.5
2005-08-30 05:27:41 51°14.973 2°45.798 279.1 14.6 273 12.7
2005-08-30 05:27:46 51°14.974 2°45.763 279.3 14.6 274 12.9
2005-08-30 05:27:51 51°14.975 2°45.734 279.2 14.5 273 13.1
2005-08-30 05:27:56 51°14.976 2°45.702 278.9 14.5 273 13.3
2005-08-30 05:28:00 51°14.977 2°45.672 278.7 14.6 273 13.5
2005-08-30 05:28:05 51°14.978 2°45.641 278.7 14.6 273 13.7
2005-08-30 05:28:11 51°14.979 2°45.605 278.8 14.6 273 13.9
2005-08-30 05:28:16 51°14.98 2°45.573 279.3 14.6 274 14
2005-08-30 05:28:20 51°14.982 2°45.544 279.4 14.6 274 14.3
2005-08-30 05:28:26 51°14.983 2°45.509 279.4 14.6 274 14.3
2005-08-30 05:28:31 51°14.984 2°45.476 279.4 14.6 273 14.5
2005-08-30 05:28:36 51°14.985 2°45.444 279.1 14.6 273 14.5
2005-08-30 05:28:40 51°14.986 2°45.415 278.6 14.6 273 14.6
2005-08-30 05:28:46 51°14.987 2°45.38 278.6 14.6 273 14.7
2005-08-30 05:28:51 51°14.988 2°45.347 278.6 14.6 273 14.9
2005-08-30 05:28:56 51°14.989 2°45.315 278.6 14.6 273 15
2005-08-30 05:29:01 51°14.99 2°45.283 278.7 14.6 273 15.1
2005-08-30 05:29:06 51°14.991 2°45.251 279 14.6 273 15.2
2005-08-30 05:29:11 51°14.993 2°45.218 279.4 14.6 273 15.3
2005-08-30 05:29:15 51°14.994 2°45.189 279.7 14.6 274 15.5
2005-08-30 05:29:21 51°14.995 2°45.154 279.8 14.6 274 15.6
2005-08-30 05:29:26 51°14.997 2°45.119 279.8 14.6 274 15.7
2005-08-30 05:29:31 51°14.998 2°45.09 279.7 14.6 274 15.8
2005-08-30 05:29:36 51°14.999 2°45.057 279.4 14.6 273 16
2005-08-30 05:29:41 51°15 2°45.025 279.2 14.6 273 16.1
2005-08-30 05:29:46 51°15.001 2°44.993 278.6 14.6 273 16.2
2005-08-30 05:29:51 51°15.002 2°44.96 278.6 14.6 273 16.4
2005-08-30 05:29:56 51°15.003 2°44.928 278.7 14.6 273 16.4
2005-08-30 05:30:01 51°15.005 2°44.896 279 14.6 274 16.5
2005-08-30 05:30:06 51°15.006 2°44.863 279.4 14.6 274 16.6
2005-08-30 05:30:11 51°15.007 2°44.831 279.5 14.7 274 16.7
2005-08-30 05:30:16 51°15.008 2°44.799 279.6 14.7 273 16.7
2005-08-30 05:30:20 51°15.01 2°44.769 279.4 14.6 273 16.8
2005-08-30 05:30:26 51°15.011 2°44.734 279.1 14.7 273 16.8
2005-08-30 05:30:31 51°15.012 2°44.702 279 14.6 274 16.9
2005-08-30 05:30:37 51°15.013 2°44.663 279.2 14.7 273 16.9
2005-08-30 05:30:41 51°15.014 2°44.637 279.4 14.7 274 17
2005-08-30 05:30:46 51°15.015 2°44.605 279.5 14.7 274 17.2
2005-08-30 05:30:51 51°15.017 2°44.572 279.4 14.6 273 17.2
2005-08-30 05:30:56 51°15.018 2°44.54 279.1 14.7 273 17.4
2005-08-30 05:31:00 51°15.018 2°44.511 278.7 14.7 273 17.5
2005-08-30 05:31:06 51°15.019 2°44.475 278.5 14.7 272 17.6
2005-08-30 05:31:11 51°15.02 2°44.443 278.6 14.7 273 17.7
2005-08-30 05:31:16 51°15.021 2°44.411 278.9 14.7 273 17.8
2005-08-30 05:31:21 51°15.023 2°44.378 279.4 14.7 273 17.9
2005-08-30 05:31:26 51°15.024 2°44.343 279.6 14.6 274 18.1
2005-08-30 05:31:30 51°15.025 2°44.317 279.5 14.7 273 18.1
2005-08-30 05:31:36 51°15.026 2°44.281 279.4 14.7 273 18.2
2005-08-30 05:31:41 51°15.027 2°44.249 279.1 14.7 273 18.4
2005-08-30 05:31:46 51°15.028 2°44.216 279 14.7 273 18.4
2005-08-30 05:31:51 51°15.029 2°44.184 278.9 14.7 273 18.5
2005-08-30 05:31:56 51°15.031 2°44.151 278.9 14.7 273 18.6
2005-08-30 05:32:01 51°15.032 2°44.119 279.4 14.7 273 18.6
2005-08-30 05:32:06 51°15.033 2°44.086 279.5 14.6 274 18.6
2005-08-30 05:32:10 51°15.034 2°44.057 279.5 14.7 273 18.6
2005-08-30 05:32:16 51°15.036 2°44.022 279.5 14.7 273 18.6
2005-08-30 05:32:21 51°15.037 2°43.989 279.5 14.7 273 18.4
2005-08-30 05:32:27 51°15.038 2°43.95 279.4 14.7 273 18.5
2005-08-30 05:32:31 51°15.039 2°43.924 279 14.7 273 18.4
2005-08-30 05:32:36 51°15.04 2°43.892 278.9 14.7 273 18.4
2005-08-30 05:32:40 51°15.041 2°43.863 279.3 14.7 274 18.2
2005-08-30 05:32:46 51°15.042 2°43.827 279.3 14.7 273 18
2005-08-30 05:32:51 51°15.044 2°43.795 279.4 14.7 273 18
2005-08-30 05:32:55 51°15.045 2°43.766 279 14.7 273 17.9
2005-08-30 05:33:01 51°15.046 2°43.73 278.9 14.7 273 17.7
2005-08-30 05:33:06 51°15.047 2°43.698 278.8 14.7 273 17.4
2005-08-30 05:33:11 51°15.048 2°43.665 278.7 14.7 273 17.2
2005-08-30 05:33:15 51°15.049 2°43.636 278.9 14.7 273 16.9
2005-08-30 05:33:21 51°15.05 2°43.601 278.8 14.6 273 16.7
2005-08-30 05:33:26 51°15.051 2°43.569 278.8 14.7 273 16.5
2005-08-30 05:33:31 51°15.052 2°43.536 278.8 14.7 273 16.2
2005-08-30 05:33:36 51°15.053 2°43.504 279 14.6 273 15.9
2005-08-30 05:33:41 51°15.054 2°43.469 279.2 14.6 273 15.7
2005-08-30 05:33:46 51°15.055 2°43.44 279 14.6 273 15.4
2005-08-30 05:33:51 51°15.056 2°43.407 278.8 14.6 273 14.8
2005-08-30 05:33:56 51°15.057 2°43.372 278.9 14.6 273 14.9
2005-08-30 05:34:01 51°15.059 2°43.34 279.1 14.6 273 14.4
2005-08-30 05:34:06 51°15.06 2°43.311 279.5 14.6 274 14.4
2005-08-30 05:34:11 51°15.061 2°43.279 279.7 14.6 274 14.2
2005-08-30 05:34:16 51°15.063 2°43.247 279.5 14.6 274 14
2005-08-30 05:34:20 51°15.063 2°43.217 279.2 14.6 273 13.9
2005-08-30 05:34:26 51°15.065 2°43.182 279.2 14.6 273 13.9
2005-08-30 05:34:31 51°15.066 2°43.15 279.2 14.6 273 13.9
2005-08-30 05:34:36 51°15.067 2°43.118 279 14.5 273 14
2005-08-30 05:34:41 51°15.068 2°43.086 278.9 14.5 273 13.5
2005-08-30 05:34:46 51°15.069 2°43.05 278.8 14.5 273 13.2
2005-08-30 05:34:51 51°15.069 2°43.022 278.8 14.6 273 13.7
2005-08-30 05:34:55 51°15.07 2°42.993 278.9 14.5 273 13.8
2005-08-30 05:35:01 51°15.072 2°42.957 279 14.5 273 13.7
2005-08-30 05:35:06 51°15.073 2°42.922 279 14.5 273 13.8
2005-08-30 05:35:11 51°15.074 2°42.893 279.2 14.6 273 13.8
2005-08-30 05:35:16 51°15.075 2°42.861 279.4 14.6 273 13.8
2005-08-30 05:35:20 51°15.076 2°42.832 279.6 14.5 273 13.8
2005-08-30 05:35:26 51°15.077 2°42.797 279.5 14.5 273 14
2005-08-30 05:35:31 51°15.078 2°42.765 279.4 14.5 273 13.9
2005-08-30 05:35:36 51°15.079 2°42.732 279.3 14.5 273 14
2005-08-30 05:35:41 51°15.08 2°42.7 279.5 14.6 273 14
2005-08-30 05:35:46 51°15.081 2°42.669 279.7 14.4 274 14.2
2005-08-30 05:35:51 51°15.082 2°42.636 279.7 14.4 273 14
2005-08-30 05:35:57 51°15.084 2°42.598 279.7 14.5 273 14.1
2005-08-30 05:36:01 51°15.085 2°42.572 279.6 14.5 273 13.8
2005-08-30 05:36:06 51°15.085 2°42.54 279.4 14.5 273 12.8
2005-08-30 05:36:11 51°15.087 2°42.509 279.4 14.5 273 12
2005-08-30 05:36:16 51°15.088 2°42.477 279.4 14.5 273 13.6
2005-08-30 05:36:21 51°15.089 2°42.445 279.4 14.4 273 13.7
2005-08-30 05:36:26 51°15.09 2°42.413 279.4 14.5 274 13.8
2005-08-30 05:36:31 51°15.093 2°42.381 281 14.5 274 13.9
2005-08-30 05:36:36 51°15.095 2°42.349 282.7 14.5 276 14
2005-08-30 05:36:41 51°15.098 2°42.317 284 14.4 277 14
2005-08-30 05:36:46 51°15.101 2°42.286 285 14.4 277 13.8
2005-08-30 05:36:51 51°15.104 2°42.255 285.7 14.4 279 13.8
2005-08-30 05:36:56 51°15.107 2°42.223 286.1 14.3 279 13.8
2005-08-30 05:37:01 51°15.111 2°42.192 286.2 14.3 279 13.7
2005-08-30 05:37:06 51°15.114 2°42.158 286.2 14.3 279 13.3
2005-08-30 05:37:11 51°15.117 2°42.129 285.9 14.3 279 13
2005-08-30 05:37:16 51°15.119 2°42.098 285.6 14.3 278 13.1
2005-08-30 05:37:21 51°15.122 2°42.067 285.4 14.2 279 12.9
2005-08-30 05:37:26 51°15.125 2°42.036 285.4 14.2 279 12.6
2005-08-30 05:37:31 51°15.128 2°42.005 285.4 14.2 279 12.8
2005-08-30 05:37:35 51°15.131 2°41.977 285.3 14.2 278 13.2
2005-08-30 05:37:40 51°15.134 2°41.946 285.4 14.2 279 13.2
2005-08-30 05:37:46 51°15.138 2°41.909 285.4 14.2 279 13
2005-08-30 05:37:51 51°15.14 2°41.881 285.5 14.2 279 12.9
2005-08-30 05:37:56 51°15.143 2°41.851 285.4 14.2 279 12.7
2005-08-30 05:38:00 51°15.146 2°41.823 285.2 14 278 12.6
2005-08-30 05:38:06 51°15.148 2°41.789 285.1 14 278 12.8
2005-08-30 05:38:11 51°15.151 2°41.759 284.8 14.1 278 12.3
2005-08-30 05:38:16 51°15.154 2°41.728 284.8 14 278 12.4
2005-08-30 05:38:21 51°15.157 2°41.697 284.6 14 278 12.9
2005-08-30 05:38:26 51°15.16 2°41.664 284.5 14 278 12.8
2005-08-30 05:38:31 51°15.162 2°41.637 284.6 14 278 12.9
2005-08-30 05:38:35 51°15.165 2°41.609 284.7 14 278 12.7
2005-08-30 05:38:41 51°15.168 2°41.576 285 14 279 12.7
2005-08-30 05:38:46 51°15.171 2°41.545 285.2 14 279 12.6
2005-08-30 05:38:51 51°15.174 2°41.514 285.6 14 279 12.4
2005-08-30 05:38:55 51°15.177 2°41.49 285.9 13.9 280 12.4
2005-08-30 05:39:01 51°15.181 2°41.454 286.1 13.9 280 12.2
2005-08-30 05:39:06 51°15.184 2°41.424 286.6 13.8 280 12.2
2005-08-30 05:39:11 51°15.187 2°41.394 286 13.8 279 12.2
2005-08-30 05:39:16 51°15.19 2°41.363 285.9 13.9 279 12
2005-08-30 05:39:21 51°15.193 2°41.333 285.9 13.9 279 11.9
2005-08-30 05:39:26 51°15.197 2°41.299 285.9 13.9 280 11.7
2005-08-30 05:39:31 51°15.199 2°41.272 285.9 13.9 279 11.7
2005-08-30 05:39:35 51°15.202 2°41.245 286.2 13.9 280 11.6
2005-08-30 05:39:41 51°15.206 2°41.212 285.9 13.9 279 11.6
2005-08-30 05:39:46 51°15.209 2°41.182 285.8 13.9 279 11.5
2005-08-30 05:39:51 51°15.212 2°41.152 285.8 13.9 279 11.7
2005-08-30 05:39:56 51°15.215 2°41.121 285.7 13.9 279 11.6
2005-08-30 05:40:01 51°15.218 2°41.09 285.6 13.9 279 11.7
2005-08-30 05:40:06 51°15.221 2°41.06 285.5 14 279 11.7
2005-08-30 05:40:11 51°15.224 2°41.029 285.6 14 279 11.9
2005-08-30 05:40:15 51°15.227 2°41.002 285.6 13.9 279 12
2005-08-30 05:40:21 51°15.23 2°40.969 285.5 13.9 279 11.9
2005-08-30 05:40:26 51°15.233 2°40.935 285.3 13.9 279 12
2005-08-30 05:40:31 51°15.236 2°40.908 285.2 13.9 279 12.2
2005-08-30 05:40:35 51°15.239 2°40.88 285.2 14 280 11.9
2005-08-30 05:40:41 51°15.243 2°40.848 285.9 14 280 12.2
2005-08-30 05:40:46 51°15.248 2°40.818 289.1 14 280 11.9
2005-08-30 05:40:51 51°15.253 2°40.789 291.1 14 280 12
2005-08-30 05:40:56 51°15.26 2°40.76 293.1 14 280 11.9
2005-08-30 05:41:01 51°15.265 2°40.731 294.9 14 280 12
2005-08-30 05:41:06 51°15.272 2°40.703 296.1 13.7 289 11.8
2005-08-30 05:41:11 51°15.278 2°40.677 296.6 13.2 290 11.9
2005-08-30 05:41:16 51°15.285 2°40.654 298.3 12.3 292 12
2005-08-30 05:41:21 51°15.292 2°40.635 303.1 10.9 298 12.6
2005-08-30 05:41:26 51°15.3 2°40.619 310.3 9.9 303 12.3
2005-08-30 05:41:31 51°15.308 2°40.605 317.3 8.7 311 12.9
2005-08-30 05:41:36 51°15.316 2°40.594 322.6 8.7 311 12.4
2005-08-30 05:41:41 51°15.323 2°40.586 328.8 7.2 322 12.7
2005-08-30 05:41:46 51°15.332 2°40.578 335 6.4 328 13.3
2005-08-30 05:41:51 51°15.338 2°40.573 341 6.1 333 13.4
2005-08-30 05:41:56 51°15.345 2°40.569 346.8 6.1 333 13.2
2005-08-30 05:42:00 51°15.352 2°40.567 352.9 5.2 344 13
2005-08-30 05:42:05 51°15.358 2°40.565 358.9 5 348 13.2
2005-08-30 05:42:11 51°15.365 2°40.565 5.8 5 348 13.7
2005-08-30 05:42:16 51°15.37 2°40.566 11.5 4.1 2 13.3
2005-08-30 05:42:21 51°15.375 2°40.567 15.9 3.9 7 13
2005-08-30 05:42:26 51°15.38 2°40.569 21.6 3.9 7 13.8
2005-08-30 05:42:31 51°15.385 2°40.572 27 3.6 15 13.5
2005-08-30 05:42:36 51°15.389 2°40.575 33.7 3.3 26 13.2
2005-08-30 05:42:41 51°15.392 2°40.579 39.1 3.3 26 13.6
2005-08-30 05:42:46 51°15.396 2°40.583 44.8 3.1 37 13.7
2005-08-30 05:42:51 51°15.398 2°40.587 49.6 3.1 37 13.3
2005-08-30 05:42:56 51°15.401 2°40.592 53.2 2.8 43 13.1
2005-08-30 05:43:01 51°15.403 2°40.596 55.1 2.7 48 13.7
2005-08-30 05:43:06 51°15.405 2°40.601 58.1 2.6 50 13.4
2005-08-30 05:43:11 51°15.407 2°40.605 60.2 2.6 50 13.2
2005-08-30 05:43:16 51°15.409 2°40.61 62.3 2.5 53 12.9
2005-08-30 05:43:21 51°15.411 2°40.615 64.5 2.4 59 13.7
2005-08-30 05:43:26 51°15.412 2°40.619 66 2.4 59 13.5
2005-08-30 05:43:31 51°15.414 2°40.623 66.4 2.4 59 13.3
2005-08-30 05:43:36 51°15.415 2°40.628 66.7 2.2 60 13
2005-08-30 05:43:41 51°15.417 2°40.632 66.7 2.2 63 12.8
2005-08-30 05:43:46 51°15.418 2°40.636 66.5 2.2 63 13.2
2005-08-30 05:43:51 51°15.42 2°40.641 66.9 2.2 60 13.7
2005-08-30 05:43:56 51°15.421 2°40.645 67.2 2.3 64 13.4
2005-08-30 05:44:01 51°15.423 2°40.65 67.5 2.3 64 13.2
2005-08-30 05:44:06 51°15.425 2°40.655 67.8 2.4 64 13
2005-08-30 05:44:11 51°15.426 2°40.659 68.1 2.4 64 13
2005-08-30 05:44:16 51°15.427 2°40.664 68.1 2.4 68 13.4
2005-08-30 05:44:21 51°15.429 2°40.669 67.6 2.5 66 13.3
2005-08-30 05:44:26 51°15.43 2°40.674 67.3 2.5 64 13.1
2005-08-30 05:44:31 51°15.432 2°40.679 67.5 2.5 62 12.9
2005-08-30 05:44:36 51°15.433 2°40.685 68.5 2.6 70 12.9
2005-08-30 05:44:41 51°15.434 2°40.69 69.8 2.7 67 13.2
2005-08-30 05:44:46 51°15.436 2°40.696 71.1 2.6 70 13.1
2005-08-30 05:44:51 51°15.437 2°40.701 72.2 2.6 70 12.8
2005-08-30 05:44:56 51°15.438 2°40.706 72.7 2.4 75 12.7
2005-08-30 05:45:01 51°15.439 2°40.711 73.4 2.4 75 12.7
2005-08-30 05:45:06 51°15.439 2°40.715 74.2 2.2 74 13.2
2005-08-30 05:45:10 51°15.44 2°40.719 75 2.1 75 12.9
2005-08-30 05:45:16 51°15.44 2°40.724 76.1 2.1 79 12.7
2005-08-30 05:45:20 51°15.441 2°40.728 76.9 2 79 12.6
2005-08-30 05:45:26 51°15.441 2°40.732 78 1.9 83 12.5
2005-08-30 05:45:31 51°15.441 2°40.735 78.9 1.8 87 12.4
2005-08-30 05:45:36 51°15.441 2°40.737 79.9 1.8 87 12.4
2005-08-30 05:45:40 51°15.441 2°40.737 82.1 1.8 87 12.4
2005-08-30 05:45:46 51°15.441 2°40.737 84.9 0.3 105 12.4
2005-08-30 05:45:51 51°15.44 2°40.737 86.8 0.3 220 12.4
2005-08-30 05:45:56 51°15.44 2°40.736 88.3 0.3 220 12.4
2005-08-30 05:46:01 51°15.44 2°40.735 88.8 0.3 220 12.4
2005-08-30 05:46:06 51°15.439 2°40.735 89.4 0.5 211 12.5
2005-08-30 05:46:11 51°15.439 2°40.734 90 0.4 215 12.5
2005-08-30 05:46:16 51°15.438 2°40.734 90.7 0.4 215 12.5
2005-08-30 05:46:21 51°15.438 2°40.733 91 0.4 234 12.6
2005-08-30 05:46:26 51°15.437 2°40.733 91.6 0.4 223 12.6
2005-08-30 05:46:31 51°15.437 2°40.731 92.1 0.4 217 12.6
2005-08-30 05:46:36 51°15.437 2°40.731 92.5 0.4 225 12.6
2005-08-30 05:46:40 51°15.436 2°40.73 92.9 0.4 225 12.7
2005-08-30 05:46:46 51°15.436 2°40.73 93.2 0.5 219 12.7
2005-08-30 05:46:51 51°15.435 2°40.729 93.5 0.5 227 12.7
2005-08-30 05:46:56 51°15.435 2°40.728 93.8 0.5 227 12.8
2005-08-30 05:47:01 51°15.434 2°40.728 94.2 0.4 226 12.8
2005-08-30 05:47:06 51°15.434 2°40.727 94.4 0.5 220 12.8
2005-08-30 05:47:11 51°15.433 2°40.726 94.7 0.4 217 12.8
2005-08-30 05:47:16 51°15.433 2°40.725 95 0.4 217 12.9
2005-08-30 05:47:21 51°15.432 2°40.725 95.3 0.5 222 12.9
2005-08-30 05:47:26 51°15.432 2°40.724 95.5 0.5 214 12.9
2005-08-30 05:47:31 51°15.431 2°40.723 95.8 0.4 225 13
2005-08-30 05:47:35 51°15.431 2°40.722 96 0.4 225 13
2005-08-30 05:47:41 51°15.43 2°40.722 96.1 0.5 227 13.1
2005-08-30 05:47:46 51°15.429 2°40.721 96.1 0.6 213 13.1
2005-08-30 05:47:51 51°15.429 2°40.72 96.2 0.6 213 13.1
2005-08-30 05:47:56 51°15.428 2°40.72 95.9 0.5 199 13
2005-08-30 05:48:01 51°15.428 2°40.721 94.6 0.3 179 13
2005-08-30 05:48:06 51°15.428 2°40.721 92.1 0.5 159 13.1
2005-08-30 05:48:11 51°15.427 2°40.722 90 0.5 159 13
2005-08-30 05:48:16 51°15.427 2°40.723 87 0.5 137 13
2005-08-30 05:48:21 51°15.427 2°40.724 83.9 0.5 119 13
2005-08-30 05:48:26 51°15.426 2°40.725 80.3 0.5 108 13
2005-08-30 05:48:31 51°15.426 2°40.726 76.8 0.6 91 13
2005-08-30 05:48:36 51°15.427 2°40.728 73.3 0.6 91 12.9
2005-08-30 05:48:40 51°15.427 2°40.729 70.2 0.6 91 12.9
2005-08-30 05:48:46 51°15.427 2°40.732 66.5 0.8 72 12.8
2005-08-30 05:48:51 51°15.428 2°40.733 64.3 0.9 64 12.7
2005-08-30 05:48:56 51°15.429 2°40.736 61.2 1 66 12.7
2005-08-30 05:49:01 51°15.43 2°40.737 57.8 1.1 57 12.6
2005-08-30 05:49:06 51°15.43 2°40.738 54 1.1 52 12.6
2005-08-30 05:49:11 51°15.432 2°40.74 50.4 0.9 38 12.6
2005-08-30 05:49:15 51°15.432 2°40.741 47.6 0.9 37 12.5
2005-08-30 05:49:21 51°15.433 2°40.742 45.4 0.9 31 12.4
2005-08-30 05:49:26 51°15.435 2°40.743 43.6 0.8 34 12.4
2005-08-30 05:49:31 51°15.435 2°40.744 42.1 0.8 29 12.4
2005-08-30 05:49:35 51°15.436 2°40.745 41 0.7 31 12.4
2005-08-30 05:49:41 51°15.437 2°40.746 40.1 0.7 31 12.4
2005-08-30 05:49:46 51°15.439 2°40.746 39.4 0.8 27 12.8
2005-08-30 05:49:51 51°15.44 2°40.746 39.1 0.8 18 12.8
2005-08-30 05:49:56 51°15.441 2°40.747 38.6 0.9 21 12.8
2005-08-30 05:50:01 51°15.443 2°40.748 37.8 0.9 16 12.7
2005-08-30 05:50:06 51°15.444 2°40.749 37.2 0.9 23 12.7
2005-08-30 05:50:11 51°15.445 2°40.749 36.2 1 13 12.6
2005-08-30 05:50:15 51°15.446 2°40.75 35.5 1 24 12.6
2005-08-30 05:50:21 51°15.448 2°40.75 34.7 1 24 12.7
2005-08-30 05:50:26 51°15.449 2°40.751 34.7 1 24 12.6
2005-08-30 05:50:31 51°15.451 2°40.751 35.3 1.1 6 12.4
2005-08-30 05:50:36 51°15.452 2°40.752 37 1.1 21 12.3
2005-08-30 05:50:41 51°15.453 2°40.753 38.6 1.1 14 12.4
2005-08-30 05:50:46 51°15.455 2°40.754 40.9 1 29 12.4
2005-08-30 05:50:51 51°15.456 2°40.755 43.2 1 29 12.5
2005-08-30 05:50:56 51°15.457 2°40.756 44.9 1 23 13.1
2005-08-30 05:51:01 51°15.458 2°40.757 45.7 0.9 26 13
2005-08-30 05:51:05 51°15.459 2°40.757 46.5 0.9 29 12.8
2005-08-30 05:51:11 51°15.46 2°40.758 47.2 0.9 29 12.1
2005-08-30 05:51:16 51°15.461 2°40.759 47.5 0.8 29 12.3
2005-08-30 05:51:21 51°15.462 2°40.759 47.8 0.8 29 12.9
2005-08-30 05:51:26 51°15.463 2°40.76 47.8 0.7 25 12.9
2005-08-30 05:51:31 51°15.464 2°40.76 48.3 0.7 25 12.9
2005-08-30 05:51:36 51°15.464 2°40.76 49.3 0.3 30 13
2005-08-30 05:51:40 51°15.465 2°40.76 50.7 0.3 2 13
2005-08-30 05:51:46 51°15.465 2°40.76 51.7 0.3 2 13.1
2005-08-30 05:51:51 51°15.465 2°40.76 52.9 0.3 338 13.1
2005-08-30 05:51:56 51°15.465 2°40.76 53.8 0.1 229 13.1
2005-08-30 05:52:01 51°15.465 2°40.758 54.9 0.2 271 13.1
2005-08-30 05:52:06 51°15.464 2°40.758 55.9 0.2 271 13.1
2005-08-30 05:52:11 51°15.464 2°40.756 56.8 0.6 241 12.8
2005-08-30 05:52:16 51°15.463 2°40.755 57.3 0.8 227 12.2
2005-08-30 05:52:21 51°15.463 2°40.753 58.1 0.8 227 12.2
2005-08-30 05:52:26 51°15.462 2°40.751 59 0.8 235 12.5
2005-08-30 05:52:31 51°15.462 2°40.75 59.5 0.8 235 13
2005-08-30 05:52:36 51°15.461 2°40.748 60.2 0.8 242 12.7
2005-08-30 05:52:41 51°15.461 2°40.747 60.5 0.8 247 12.2
2005-08-30 05:52:46 51°15.46 2°40.745 60.7 0.8 247 12.6
2005-08-30 05:52:51 51°15.459 2°40.744 60.9 0.8 244 12.6
2005-08-30 05:52:56 51°15.459 2°40.742 60.9 0.8 225 12.6
2005-08-30 05:53:01 51°15.459 2°40.74 60.8 0.8 242 12.6
2005-08-30 05:53:06 51°15.458 2°40.738 60.6 0.8 237 12.7
2005-08-30 05:53:11 51°15.458 2°40.737 60.2 0.9 247 12.7
2005-08-30 05:53:16 51°15.457 2°40.735 59.9 0.9 231 12.8
2005-08-30 05:53:21 51°15.457 2°40.733 59.5 0.9 252 12.8
2005-08-30 05:53:26 51°15.456 2°40.732 59.1 0.9 256 12.9
2005-08-30 05:53:30 51°15.456 2°40.73 58.6 0.9 246 12.9
2005-08-30 05:53:36 51°15.455 2°40.729 58 0.8 229 13.1
2005-08-30 05:53:41 51°15.455 2°40.727 57.3 0.8 229 13.1
2005-08-30 05:53:46 51°15.454 2°40.725 56.6 0.8 231 13.3
2005-08-30 05:53:51 51°15.453 2°40.724 55.8 0.9 245 12.8
2005-08-30 05:53:55 51°15.453 2°40.722 55.1 0.9 245 12.8
2005-08-30 05:54:01 51°15.452 2°40.72 54.3 0.8 239 12.8
2005-08-30 05:54:06 51°15.452 2°40.719 53.5 0.8 239 12.8
2005-08-30 05:54:11 51°15.451 2°40.717 52.7 0.8 239 12.8
2005-08-30 05:54:16 51°15.451 2°40.715 51.9 0.9 246 12.8
2005-08-30 05:54:21 51°15.45 2°40.713 51.2 0.9 246 12.9
2005-08-30 05:54:26 51°15.45 2°40.712 50.3 0.9 247 13
2005-08-30 05:54:31 51°15.449 2°40.71 49.4 0.9 247 13
2005-08-30 05:54:36 51°15.448 2°40.709 48.6 0.9 247 13.1
2005-08-30 05:54:40 51°15.448 2°40.707 47.9 0.9 248 13.1
2005-08-30 05:54:46 51°15.447 2°40.705 46.9 0.8 240 13.3
2005-08-30 05:54:51 51°15.447 2°40.704 46.1 0.8 239 13.3
2005-08-30 05:54:55 51°15.447 2°40.702 45.2 0.8 241 13.1
2005-08-30 05:55:01 51°15.446 2°40.701 44.2 0.8 243 12.7
2005-08-30 05:55:06 51°15.445 2°40.699 43.4 0.8 243 12.7
2005-08-30 05:55:11 51°15.445 2°40.697 42.4 0.8 243 12.7
2005-08-30 05:55:16 51°15.444 2°40.695 41.5 0.8 243 12.7
2005-08-30 05:55:21 51°15.444 2°40.694 40.6 0.8 245 12.9
2005-08-30 05:55:26 51°15.444 2°40.692 39.7 0.8 245 13
2005-08-30 05:55:31 51°15.443 2°40.69 38.8 0.8 245 13.1
2005-08-30 05:55:36 51°15.442 2°40.689 37.7 0.8 244 13.2
2005-08-30 05:55:41 51°15.442 2°40.687 37 0.8 244 13.4
2005-08-30 05:55:45 51°15.442 2°40.686 36.2 0.8 244 13.5
2005-08-30 05:55:51 51°15.441 2°40.683 35.3 0.9 256 13.5
2005-08-30 05:55:56 51°15.441 2°40.682 34.3 0.8 246 13
2005-08-30 05:56:01 51°15.44 2°40.681 33.8 0.8 247 12.9
2005-08-30 05:56:06 51°15.44 2°40.68 32.9 0.8 246 12.9
2005-08-30 05:56:11 51°15.439 2°40.678 32.1 0.8 246 13
2005-08-30 05:56:16 51°15.439 2°40.676 31.4 0.8 246 13.1
2005-08-30 05:56:21 51°15.438 2°40.675 30.8 0.9 245 13.2
2005-08-30 05:56:26 51°15.438 2°40.672 30.2 0.9 245 13.3
2005-08-30 05:56:31 51°15.438 2°40.671 29.5 0.9 255 13.4
2005-08-30 05:56:36 51°15.437 2°40.669 29 0.8 241 13.5
2005-08-30 05:56:41 51°15.437 2°40.668 28.6 0.8 241 13.6
2005-08-30 05:56:46 51°15.436 2°40.666 28 0.7 246 13.6
2005-08-30 05:56:51 51°15.436 2°40.664 27.5 0.9 255 13.1
2005-08-30 05:56:56 51°15.436 2°40.663 27.1 0.8 247 13
2005-08-30 05:57:01 51°15.435 2°40.661 26.7 0.8 249 13
2005-08-30 05:57:06 51°15.435 2°40.659 26.1 0.7 245 13
2005-08-30 05:57:11 51°15.434 2°40.658 25.6 0.7 245 13.1
2005-08-30 05:57:16 51°15.434 2°40.656 25.2 0.7 246 13.2
2005-08-30 05:57:20 51°15.434 2°40.654 24.8 0.7 246 13.3
2005-08-30 05:57:26 51°15.433 2°40.653 24.5 0.8 252 13.4
2005-08-30 05:57:31 51°15.433 2°40.651 24 0.9 254 13.5
2005-08-30 05:57:35 51°15.433 2°40.65 23.7 0.7 243 13.6
2005-08-30 05:57:41 51°15.432 2°40.647 23.4 0.9 259 13.7
2005-08-30 05:57:46 51°15.432 2°40.646 23.1 0.9 259 13.8
2005-08-30 05:57:51 51°15.432 2°40.644 23 0.9 252 13.8
2005-08-30 05:57:56 51°15.431 2°40.642 22.6 0.8 255 13.4
2005-08-30 05:58:01 51°15.431 2°40.641 22.5 0.8 254 13.1
2005-08-30 05:58:06 51°15.43 2°40.639 22.3 0.8 254 13.1
2005-08-30 05:58:11 51°15.43 2°40.638 22.1 0.8 251 13.1
2005-08-30 05:58:16 51°15.43 2°40.636 22 0.8 250 13.2
2005-08-30 05:58:21 51°15.429 2°40.634 21.9 0.8 250 13.3
2005-08-30 05:58:26 51°15.429 2°40.633 21.8 0.8 251 13.3
2005-08-30 05:58:31 51°15.429 2°40.631 21.8 0.7 249 13.4
2005-08-30 05:58:36 51°15.428 2°40.63 21.8 0.7 249 13.5
2005-08-30 05:58:41 51°15.428 2°40.628 21.8 0.7 249 13.6
2005-08-30 05:58:46 51°15.428 2°40.626 21.8 0.7 249 13.7
2005-08-30 05:58:51 51°15.428 2°40.625 21.8 0.7 248 13.8
2005-08-30 05:58:56 51°15.427 2°40.623 22 0.7 248 13.9
2005-08-30 05:59:00 51°15.427 2°40.622 22 0.7 251 13.9
2005-08-30 05:59:06 51°15.427 2°40.62 22.2 0.8 255 13.7
2005-08-30 05:59:11 51°15.426 2°40.619 22.4 0.7 255 13.4
2005-08-30 05:59:16 51°15.426 2°40.617 22.5 0.9 259 13.3
2005-08-30 05:59:20 51°15.426 2°40.616 22.6 0.7 253 13.3
2005-08-30 05:59:26 51°15.426 2°40.614 23 0.7 248 13.3
2005-08-30 05:59:31 51°15.425 2°40.612 22.9 0.7 248 13.4
2005-08-30 05:59:36 51°15.423 2°40.61 23.5 0.7 248 13.6
2005-08-30 05:59:41 51°15.421 2°40.607 24.4 1.5 220 13.7
2005-08-30 05:59:46 51°15.418 2°40.604 26.1 2.4 218 13.9
2005-08-30 05:59:51 51°15.415 2°40.6 27.3 2.4 218 13.3
2005-08-30 05:59:57 51°15.411 2°40.595 28.8 3 217 -999
2005-08-30 06:00:02 51°15.407 2°40.592 30.2 3.2 215 -999
2005-08-30 06:00:07 51°15.403 2°40.588 30.6 3.1 215 -999
2005-08-30 06:00:12 51°15.4 2°40.584 30.6 3 213 -999
2005-08-30 06:00:16 51°15.398 2°40.581 30.7 2.7 217 -999
2005-08-30 06:00:22 51°15.395 2°40.577 30.8 2.4 219 -999
2005-08-30 06:00:26 51°15.393 2°40.575 31.1 2.3 221 13.9
2005-08-30 06:00:31 51°15.391 2°40.573 31.4 2.3 221 13.7
2005-08-30 06:00:35 51°15.39 2°40.571 32.3 1.4 231 13.4
2005-08-30 06:00:41 51°15.39 2°40.569 34.3 1 232 13.4
2005-08-30 06:00:46 51°15.389 2°40.568 37.2 0.7 254 13.4
2005-08-30 06:00:51 51°15.389 2°40.567 40.2 0.7 254 13.4
2005-08-30 06:00:56 51°15.389 2°40.566 45.1 0.5 252 13.5
2005-08-30 06:01:01 51°15.388 2°40.565 48 0.5 235 13.6
2005-08-30 06:01:06 51°15.388 2°40.564 50.3 0.5 235 13.7
2005-08-30 06:01:11 51°15.388 2°40.563 51.9 0.6 240 13.7
2005-08-30 06:01:16 51°15.387 2°40.561 53.2 0.6 240 13.8
2005-08-30 06:01:21 51°15.386 2°40.56 54.4 0.9 230 13.9
2005-08-30 06:01:26 51°15.386 2°40.558 55.8 1 236 14
2005-08-30 06:01:31 51°15.385 2°40.556 56.7 1 236 14
2005-08-30 06:01:36 51°15.384 2°40.552 57.7 1 236 13.8
2005-08-30 06:01:41 51°15.383 2°40.549 58.6 1 236 13.4
2005-08-30 06:01:46 51°15.381 2°40.545 59.5 1.7 244 13.4
2005-08-30 06:01:51 51°15.38 2°40.542 60.1 1.8 239 13.7
2005-08-30 06:01:56 51°15.379 2°40.539 60.6 1.8 242 13.8
2005-08-30 06:01:59 51°15.378 2°40.537 60.8 1.8 242 13.9
2005-08-30 06:02:06 51°15.376 2°40.532 60.8 1.8 242 5.5
2005-08-30 06:02:11 51°15.375 2°40.529 60.3 1.8 241 13.4
2005-08-30 06:02:16 51°15.374 2°40.526 59.8 1.7 243 13.5
2005-08-30 06:02:21 51°15.373 2°40.523 59.5 1.6 238 13.7
2005-08-30 06:02:26 51°15.372 2°40.52 58.4 1.7 238 13.9
2005-08-30 06:02:31 51°15.371 2°40.517 57.5 1.6 238 14
2005-08-30 06:02:36 51°15.369 2°40.514 56.8 1.6 238 14
2005-08-30 06:02:41 51°15.368 2°40.511 56 1.6 235 13.5
2005-08-30 06:02:46 51°15.367 2°40.508 54.9 1.6 236 13.6
2005-08-30 06:02:51 51°15.366 2°40.505 53.9 1.6 231 13.8
2005-08-30 06:02:56 51°15.365 2°40.502 52.9 1.6 240 14
2005-08-30 06:03:01 51°15.363 2°40.499 52.2 1.6 236 14.1
2005-08-30 06:03:06 51°15.362 2°40.496 51.2 1.6 234 13.9
2005-08-30 06:03:10 51°15.361 2°40.493 50.2 1.6 234 13.6
2005-08-30 06:03:16 51°15.36 2°40.491 49.5 1.6 234 13.6
2005-08-30 06:03:21 51°15.359 2°40.488 48.8 1.6 234 13.9
2005-08-30 06:03:26 51°15.357 2°40.485 48.2 1.6 234 14
2005-08-30 06:03:31 51°15.356 2°40.482 47.5 1.5 237 14.2
2005-08-30 06:03:36 51°15.355 2°40.479 46.5 1.6 243 13.6
2005-08-30 06:03:41 51°15.353 2°40.476 46.1 1.7 230 13.7
2005-08-30 06:03:46 51°15.351 2°40.473 46 2 229 14
2005-08-30 06:03:51 51°15.35 2°40.469 46 2 229 14.1
2005-08-30 06:03:56 51°15.348 2°40.466 45.7 1.8 229 13.7
2005-08-30 06:04:01 51°15.347 2°40.463 45.2 1.7 234 13.6
2005-08-30 06:04:06 51°15.345 2°40.461 45 1.6 231 13.8
2005-08-30 06:04:11 51°15.344 2°40.458 44.9 1.5 231 13.9
2005-08-30 06:04:16 51°15.343 2°40.455 45 1.4 236 14.1
2005-08-30 06:04:21 51°15.342 2°40.453 45.1 1.4 236 14.2
2005-08-30 06:04:26 51°15.341 2°40.45 45.4 1.4 238 14
2005-08-30 06:04:31 51°15.34 2°40.448 45.5 1.4 238 13.7
2005-08-30 06:04:36 51°15.339 2°40.446 45.2 1.4 238 13.6
2005-08-30 06:04:41 51°15.339 2°40.445 45.9 1.4 238 13.7
2005-08-30 06:04:46 51°15.338 2°40.443 47.1 0.7 254 13.7
2005-08-30 06:04:51 51°15.338 2°40.443 48.5 0.5 263 13.8
2005-08-30 06:04:56 51°15.339 2°40.443 51 0.2 283 13.8
2005-08-30 06:05:01 51°15.339 2°40.444 54.2 0.3 74 13.8
2005-08-30 06:05:06 51°15.339 2°40.445 58 0.4 55 13.7
2005-08-30 06:05:11 51°15.34 2°40.446 62.1 0.6 63 13.7
2005-08-30 06:05:16 51°15.34 2°40.448 67.2 0.9 64 13.6
2005-08-30 06:05:20 51°15.34 2°40.45 69.6 1 73 13.6
2005-08-30 06:05:26 51°15.341 2°40.452 71.4 1 73 13.7
2005-08-30 06:05:31 51°15.341 2°40.454 72.1 0.9 73 14
2005-08-30 06:05:36 51°15.342 2°40.455 72.7 0.8 74 14.1
2005-08-30 06:05:40 51°15.342 2°40.457 72.9 0.8 74 14.1
2005-08-30 06:05:46 51°15.342 2°40.458 73.2 0.8 74 14.1
2005-08-30 06:05:51 51°15.342 2°40.46 73.3 0.7 78 14
2005-08-30 06:05:56 51°15.343 2°40.461 73.3 0.6 73 13.9
2005-08-30 06:06:01 51°15.343 2°40.462 73.3 0.6 69 13.9
2005-08-30 06:06:06 51°15.343 2°40.464 73.3 0.6 74 13.8
2005-08-30 06:06:11 51°15.343 2°40.464 73.3 0.5 70 13.7
2005-08-30 06:06:16 51°15.344 2°40.465 73.3 0.5 71 13.7
2005-08-30 06:06:21 51°15.343 2°40.467 73.2 0.5 71 13.6
2005-08-30 06:06:26 51°15.344 2°40.468 73.2 0.5 71 13.6
2005-08-30 06:06:31 51°15.344 2°40.468 73.2 0.4 58 13.6
2005-08-30 06:06:36 51°15.344 2°40.469 73.2 0.4 93 13.6
2005-08-30 06:06:41 51°15.344 2°40.47 73.2 0.4 60 13.6
2005-08-30 06:06:47 51°15.344 2°40.471 73.2 0.4 106 13.6
2005-08-30 06:06:51 51°15.344 2°40.471 73.2 0.3 66 13.6
2005-08-30 06:06:56 51°15.345 2°40.471 73.2 0.2 77 13.6
2005-08-30 06:07:01 51°15.345 2°40.472 73.2 0.2 48 13.7
2005-08-30 06:07:06 51°15.345 2°40.473 73.2 0.2 97 13.8
2005-08-30 06:07:11 51°15.345 2°40.473 73.3 0.2 73 14.1
2005-08-30 06:07:16 51°15.344 2°40.473 73.3 0.2 102 14.1
2005-08-30 06:07:21 51°15.344 2°40.474 73.4 0.2 102 14.1
2005-08-30 06:07:26 51°15.344 2°40.474 73.5 0.2 105 14.1
2005-08-30 06:07:31 51°15.344 2°40.475 73.8 0.3 119 14.1
2005-08-30 06:07:36 51°15.344 2°40.476 74 0.3 119 14.1
2005-08-30 06:07:41 51°15.344 2°40.476 74 0.3 119 14.1
2005-08-30 06:07:46 51°15.344 2°40.476 74.1 0.2 133 14.1
2005-08-30 06:07:51 51°15.344 2°40.477 74.1 0.3 97 14.1
2005-08-30 06:07:56 51°15.344 2°40.478 74.1 0.5 83 14.1
2005-08-30 06:08:01 51°15.345 2°40.48 73.6 0.7 75 14
2005-08-30 06:08:06 51°15.345 2°40.483 73.1 0.7 75 13.9
2005-08-30 06:08:10 51°15.345 2°40.486 72.6 1.3 71 13.7
2005-08-30 06:08:16 51°15.346 2°40.491 72.4 1.6 74 13.5
2005-08-30 06:08:21 51°15.347 2°40.495 72.3 1.9 75 13.6
2005-08-30 06:08:26 51°15.348 2°40.499 72.5 2.2 73 14
2005-08-30 06:08:31 51°15.349 2°40.504 72.6 2.2 73 13.8
2005-08-30 06:08:36 51°15.35 2°40.509 72.7 2.2 73 13.5
2005-08-30 06:08:39 51°15.351 2°40.513 72.1 2.7 72 13.3
2005-08-30 06:08:46 51°15.353 2°40.521 71.1 2.7 72 14
2005-08-30 06:08:51 51°15.354 2°40.527 70.9 2.7 72 13.8
2005-08-30 06:08:56 51°15.356 2°40.534 71.1 3.2 70 13.4
2005-08-30 06:09:01 51°15.357 2°40.541 70.4 3.2 71 13.4
2005-08-30 06:09:06 51°15.359 2°40.547 69.6 3.2 71 13.7
2005-08-30 06:09:11 51°15.361 2°40.554 68.8 3.4 68 13.4
2005-08-30 06:09:16 51°15.363 2°40.562 67.9 3.5 66 13.7
2005-08-30 06:09:20 51°15.365 2°40.568 67.4 3.6 66 13.6
2005-08-30 06:09:26 51°15.368 2°40.577 66.7 3.7 65 13.2
2005-08-30 06:09:31 51°15.37 2°40.584 66.6 3.7 65 13.8
2005-08-30 06:09:35 51°15.371 2°40.591 68.5 3.9 70 13.5
2005-08-30 06:09:41 51°15.373 2°40.6 69 3.7 67 13.2
2005-08-30 06:09:46 51°15.375 2°40.607 69.2 3.6 68 13.6
2005-08-30 06:09:51 51°15.377 2°40.614 69.3 3.4 71 13.2
2005-08-30 06:09:56 51°15.378 2°40.62 69.3 3.2 72 12.9
2005-08-30 06:10:01 51°15.38 2°40.626 69.8 3 67 13.7
2005-08-30 06:10:06 51°15.381 2°40.632 70.4 2.9 75 13.5
2005-08-30 06:10:11 51°15.382 2°40.638 71.1 2.9 75 13.2
2005-08-30 06:10:16 51°15.383 2°40.643 72.2 2.9 75 12.9
2005-08-30 06:10:21 51°15.384 2°40.648 73 2.5 71 12.8
2005-08-30 06:10:26 51°15.385 2°40.653 74 2.5 71 13.6
2005-08-30 06:10:31 51°15.386 2°40.658 75.1 2.3 73 13.6
2005-08-30 06:10:36 51°15.386 2°40.663 76.2 2.2 79 13.5
2005-08-30 06:10:41 51°15.387 2°40.668 77.1 2.1 80 13.2
2005-08-30 06:10:46 51°15.387 2°40.672 78.1 2.1 84 12.9
2005-08-30 06:10:51 51°15.387 2°40.677 79.1 2 83 12.8
2005-08-30 06:10:56 51°15.387 2°40.681 80.2 2.1 87 12.8
2005-08-30 06:11:01 51°15.387 2°40.685 81.2 1.9 85 13.5
2005-08-30 06:11:06 51°15.388 2°40.688 82.1 1.7 86 13.4
2005-08-30 06:11:11 51°15.388 2°40.692 83.1 1.7 89 13.2
2005-08-30 06:11:16 51°15.388 2°40.696 83.8 1.6 89 13
2005-08-30 06:11:20 51°15.387 2°40.699 84.8 1.6 89 12.9
2005-08-30 06:11:26 51°15.387 2°40.703 85.6 1.6 92 12.8
2005-08-30 06:11:31 51°15.387 2°40.707 86.3 1.6 91 12.7
2005-08-30 06:11:36 51°15.387 2°40.711 86.5 1.8 93 12.8
2005-08-30 06:11:41 51°15.387 2°40.715 84.9 1.8 93 13.3
2005-08-30 06:11:46 51°15.388 2°40.719 81.7 1.9 80 13.2
2005-08-30 06:11:51 51°15.388 2°40.724 77.4 2 81 12.9
2005-08-30 06:11:56 51°15.389 2°40.727 72.5 2 78 12.6
2005-08-30 06:12:01 51°15.391 2°40.731 67.5 2 78 12.4
2005-08-30 06:12:06 51°15.393 2°40.735 62.2 2 78 13
2005-08-30 06:12:11 51°15.394 2°40.738 56.8 2 52 13
2005-08-30 06:12:16 51°15.396 2°40.741 50.4 2 42 12.8
2005-08-30 06:12:21 51°15.398 2°40.743 46.4 1.9 37 12.5
2005-08-30 06:12:26 51°15.401 2°40.746 43.3 1.9 37 12.5
2005-08-30 06:12:31 51°15.403 2°40.748 40.8 1.9 37 13
2005-08-30 06:12:36 51°15.405 2°40.749 38.6 1.7 27 12.9
2005-08-30 06:12:41 51°15.407 2°40.751 37.4 1.8 29 12.8
2005-08-30 06:12:46 51°15.409 2°40.753 36.7 1.8 29 12.7
2005-08-30 06:12:51 51°15.411 2°40.755 36.3 1.8 29 12.5
2005-08-30 06:12:56 51°15.414 2°40.756 36.3 1.8 29 12.5
2005-08-30 06:13:01 51°15.416 2°40.758 36.5 1.8 24 12.7
2005-08-30 06:13:06 51°15.418 2°40.759 36.5 1.7 22 12.8
2005-08-30 06:13:11 51°15.42 2°40.761 35.6 1.7 21 12.9
2005-08-30 06:13:16 51°15.422 2°40.761 33.4 1.7 20 12.8
2005-08-30 06:13:21 51°15.424 2°40.762 31.2 1.6 16 12.8
2005-08-30 06:13:26 51°15.426 2°40.763 29.1 1.5 11 12.8
2005-08-30 06:13:31 51°15.428 2°40.763 27.4 1.5 11 12.7
2005-08-30 06:13:36 51°15.43 2°40.763 25.8 1.4 11 12.7
2005-08-30 06:13:41 51°15.432 2°40.764 24.5 1.4 6 12.8
2005-08-30 06:13:47 51°15.435 2°40.764 23.5 1.4 6 12.8
2005-08-30 06:13:51 51°15.436 2°40.764 22.9 1.4 3 12.7
2005-08-30 06:13:55 51°15.438 2°40.764 23.1 1.4 3 12.7
2005-08-30 06:14:01 51°15.441 2°40.764 23.7 1.4 2 12.6
2005-08-30 06:14:06 51°15.442 2°40.764 25.3 1.4 2 12.5
2005-08-30 06:14:11 51°15.444 2°40.764 26.8 1.4 4 12.4
2005-08-30 06:14:16 51°15.446 2°40.765 28.5 1.4 4 12.4
2005-08-30 06:14:21 51°15.448 2°40.765 30.2 1.4 4 12.4
2005-08-30 06:14:26 51°15.449 2°40.766 31.3 1.1 11 12.5
2005-08-30 06:14:31 51°15.451 2°40.766 32.6 1.1 7 13.1
2005-08-30 06:14:34 51°15.452 2°40.766 33.4 1.1 7 13.2
2005-08-30 06:14:41 51°15.454 2°40.767 34.2 1 5 12.9
2005-08-30 06:14:46 51°15.455 2°40.767 34.9 1 9 13.2
2005-08-30 06:14:51 51°15.456 2°40.767 35.3 1 5 13.3
2005-08-30 06:14:56 51°15.457 2°40.767 35.8 1 5 13.2
2005-08-30 06:15:01 51°15.457 2°40.766 36.9 0.5 333 13.2
2005-08-30 06:15:06 51°15.458 2°40.766 38.1 0.5 327 13.2
2005-08-30 06:15:11 51°15.458 2°40.765 38.5 0.3 337 13.2
2005-08-30 06:15:16 51°15.458 2°40.765 39.1 0.3 337 13.2
2005-08-30 06:15:21 51°15.458 2°40.764 39.8 0.4 287 13.2